Time;durP1;ratioP1;P1;durP2;ratioP2;P2;SDS_P1;SDS_P2;PMS_P1;PMS_P2;Temp;Humidity;BMP_temperature;BMP_pressure;BME280_temperature;BME280_humidity;BME280_pressure;Samples;Min_cycle;Max_cycle;Signal;HPM_P1;HPM_P2
2022/07/29 00:01:01;;;;;;;6.00;3.40;;;;;;;12.11;67.95;100268.10;213354;1274;141603;-64
2022/07/29 00:06:05;;;;;;;14.60;4.00;;;;;;;12.03;67.97;100273.13;214612;1274;139696;-66
2022/07/29 00:11:09;;;;;;;5.50;3.90;;;;;;;11.98;68.36;100268.73;215332;1274;139836;-66
2022/07/29 00:16:13;;;;;;;3.30;2.90;;;;;;;11.95;68.37;100276.30;216209;1274;140672;-66
2022/07/29 00:21:16;;;;;;;11.60;4.20;;;;;;;11.96;68.41;100285.41;216342;1274;139924;-65
2022/07/29 00:26:20;;;;;;;3.50;3.10;;;;;;;11.99;68.37;100282.60;214934;1274;140656;-67
2022/07/29 00:31:23;;;;;;;4.30;3.90;;;;;;;11.96;68.34;100289.31;215542;1274;140109;-65
2022/07/29 00:36:27;;;;;;;4.20;3.70;;;;;;;11.90;68.33;100289.55;215727;1274;141528;-65
2022/07/29 00:41:31;;;;;;;7.30;4.20;;;;;;;11.76;68.62;100291.27;215230;1274;140173;-64
2022/07/29 00:46:35;;;;;;;7.00;3.40;;;;;;;11.66;68.83;100286.02;213822;1274;139572;-64
2022/07/29 00:51:39;;;;;;;7.30;3.60;;;;;;;11.65;69.02;100285.95;214885;1277;139635;-65
2022/07/29 00:56:44;;;;;;;8.30;3.40;;;;;;;11.59;69.32;100289.02;214561;1275;140069;-64
2022/07/29 01:01:47;;;;;;;7.90;3.50;;;;;;;11.55;69.31;100288.11;214282;1274;140785;-65
2022/07/29 01:06:51;;;;;;;5.70;3.20;;;;;;;11.62;69.87;100286.45;213859;1274;140848;-64
2022/07/29 01:11:55;;;;;;;5.70;3.00;;;;;;;11.63;69.87;100285.10;214404;1277;141227;-64
2022/07/29 01:17:05;;;;;;;2.60;2.40;;;;;;;11.65;69.99;100285.08;213990;1274;140077;-65
2022/07/29 01:22:42;;;;;;;3.30;2.60;;;;;;;11.61;69.97;100282.59;215072;1274;139314;-65
2022/07/29 01:28:17;;;;;;;7.20;3.10;;;;;;;11.49;69.63;100283.92;214229;1272;141904;-64
2022/07/29 01:38:59;;;;;;;5.50;2.80;;;;;;;11.24;70.05;100279.43;214183;1274;139759;-64
2022/07/29 01:44:12;;;;;;;7.80;3.40;;;;;;;11.25;70.38;100276.51;214489;1274;139944;-65
2022/07/29 01:49:24;;;;;;;6.80;3.20;;;;;;;11.25;70.44;100278.88;214501;1274;141782;-65
2022/07/29 01:54:30;;;;;;;5.60;3.70;;;;;;;11.17;70.07;100278.33;214602;1274;140504;-64
2022/07/29 01:59:37;;;;;;;3.30;3.00;;;;;;;11.10;70.33;100276.60;214658;1274;140005;-65
2022/07/29 02:04:45;;;;;;;5.50;3.30;;;;;;;11.05;70.36;100271.16;214337;1274;140270;-65
2022/07/29 02:09:51;;;;;;;5.90;3.10;;;;;;;11.02;70.70;100271.48;214902;1274;141697;-65
2022/07/29 02:15:00;;;;;;;4.20;3.30;;;;;;;11.03;70.82;100273.56;214975;1274;141488;-65
2022/07/29 02:20:06;;;;;;;6.50;3.50;;;;;;;10.94;70.59;100269.96;216327;1274;152138;-65
2022/07/29 02:25:12;;;;;;;3.00;2.50;;;;;;;10.79;70.53;100264.55;216076;1275;140645;-65
2022/07/29 02:30:18;;;;;;;4.80;3.10;;;;;;;10.66;70.57;100261.47;216341;1274;141267;-66
2022/07/29 02:35:22;;;;;;;3.90;3.30;;;;;;;10.59;70.88;100253.84;215125;1274;140739;-65
2022/07/29 02:40:26;;;;;;;3.20;2.90;;;;;;;10.61;71.10;100252.70;215857;1273;141104;-65
2022/07/29 02:45:31;;;;;;;3.50;2.40;;;;;;;10.62;70.98;100250.20;214902;1274;140274;-65
2022/07/29 02:50:44;;;;;;;3.10;2.80;;;;;;;10.60;71.05;100255.96;214454;1274;142193;-65
2022/07/29 02:56:01;;;;;;;3.50;3.20;;;;;;;10.57;71.11;100254.18;214576;1274;141739;-65
2022/07/29 03:01:16;;;;;;;3.00;2.70;;;;;;;10.48;71.11;100247.05;214574;1274;141101;-64
2022/07/29 03:06:27;;;;;;;2.80;2.60;;;;;;;10.37;71.31;100249.64;214110;1274;141704;-64
2022/07/29 03:11:42;;;;;;;4.50;2.80;;;;;;;10.31;71.52;100243.96;214687;1274;139611;-64
2022/07/29 03:16:53;;;;;;;5.70;2.90;;;;;;;10.30;71.76;100246.80;214133;1274;142104;-64
2022/07/29 03:21:58;;;;;;;3.30;2.70;;;;;;;10.36;71.81;100241.09;213892;1274;140525;-65
2022/07/29 03:27:03;;;;;;;3.80;3.40;;;;;;;10.35;71.84;100239.29;214209;1274;141203;-65
2022/07/29 03:32:07;;;;;;;2.80;2.60;;;;;;;10.36;72.06;100234.20;214083;1274;139888;-65
2022/07/29 03:37:11;;;;;;;3.60;3.30;;;;;;;10.38;72.35;100236.02;214613;1274;140329;-64
2022/07/29 03:42:19;;;;;;;6.20;3.90;;;;;;;10.44;72.57;100247.70;214471;1274;141146;-64
2022/07/29 03:47:27;;;;;;;4.80;4.20;;;;;;;10.57;72.81;100257.46;213634;1274;140014;-64
2022/07/29 03:52:51;;;;;;;5.40;3.10;;;;;;;10.87;73.15;100252.89;213328;1274;140977;-65
2022/07/29 03:57:57;;;;;;;4.70;3.40;;;;;;;11.35;72.80;100256.56;214669;1274;140261;-64
2022/07/29 04:03:03;;;;;;;5.30;3.00;;;;;;;12.14;72.37;100261.57;214071;1275;141507;-64
2022/07/29 04:08:12;;;;;;;7.80;3.80;;;;;;;12.31;72.11;100272.19;214974;1274;139522;-65
2022/07/29 04:13:16;;;;;;;4.40;4.00;;;;;;;12.51;72.25;100268.67;215527;1274;892792;-65
2022/07/29 04:18:20;;;;;;;5.50;3.90;;;;;;;12.80;71.74;100272.50;215517;1276;139946;-65
2022/07/29 04:23:24;;;;;;;9.50;4.60;;;;;;;13.23;71.29;100265.77;215716;1274;141332;-64
2022/07/29 04:28:28;;;;;;;7.10;3.50;;;;;;;13.66;71.14;100264.73;215731;1274;141170;-64
2022/07/29 04:33:33;;;;;;;3.50;3.20;;;;;;;14.12;70.97;100263.83;214767;1276;141230;-63
2022/07/29 04:38:37;;;;;;;7.80;3.40;;;;;;;14.36;70.62;100267.08;215616;1274;140302;-63
2022/07/29 04:43:41;;;;;;;6.40;3.20;;;;;;;14.51;70.42;100267.21;215950;1274;140490;-63
2022/07/29 04:48:49;;;;;;;9.20;4.10;;;;;;;14.80;69.92;100265.98;214810;1275;141161;-63
2022/07/29 04:53:53;;;;;;;7.30;3.50;;;;;;;15.61;69.24;100264.02;214246;1274;140966;-62
2022/07/29 04:58:56;;;;;;;3.60;3.30;;;;;;;16.05;68.83;100263.39;214460;1274;140284;-64
2022/07/29 05:04:00;;;;;;;9.50;4.10;;;;;;;16.45;68.30;100265.27;214164;1274;140623;-64
2022/07/29 05:09:04;;;;;;;5.20;3.60;;;;;;;16.63;68.26;100263.77;214894;1274;140522;-63
2022/07/29 05:14:08;;;;;;;3.50;3.20;;;;;;;16.58;68.31;100267.10;213396;1274;150797;-64
2022/07/29 05:19:13;;;;;;;4.20;3.40;;;;;;;16.66;68.31;100266.95;213996;1274;141271;-63
2022/07/29 05:24:17;;;;;;;23.70;3.80;;;;;;;18.30;66.43;100259.41;213438;1274;142975;-61
2022/07/29 05:29:22;;;;;;;3.90;2.50;;;;;;;21.73;63.12;100263.48;213271;1274;140387;-62
2022/07/29 05:34:47;;;;;;;3.10;2.70;;;;;;;26.15;58.35;100261.45;214879;1274;141123;-64
2022/07/29 05:39:54;;;;;;;4.30;2.60;;;;;;;29.79;53.15;100270.52;214007;1274;141806;-64
2022/07/29 05:44:59;;;;;;;2.90;2.20;;;;;;;32.35;48.44;100271.95;213559;1274;140142;-65
2022/07/29 05:50:04;;;;;;;2.60;1.60;;;;;;;34.38;44.52;100274.36;213440;1274;143016;-65
2022/07/29 05:55:09;;;;;;;2.80;1.80;;;;;;;36.10;40.70;100279.29;213712;1274;142805;-63
2022/07/29 06:00:14;;;;;;;2.70;1.30;;;;;;;37.54;37.65;100276.15;213562;1274;142432;-64
2022/07/29 06:05:18;;;;;;;1.50;1.40;;;;;;;37.89;35.27;100278.61;214669;1274;140434;-64
2022/07/29 06:10:24;;;;;;;5.90;1.80;;;;;;;36.85;34.61;100279.59;213605;1272;140354;-66
2022/07/29 06:15:30;;;;;;;10.50;2.00;;;;;;;37.16;33.04;100273.90;215163;1274;140411;-65
2022/07/29 06:20:38;;;;;;;6.30;2.00;;;;;;;37.18;31.93;100275.48;216182;1274;139787;-65
2022/07/29 06:25:43;;;;;;;5.30;1.90;;;;;;;37.11;31.28;100268.09;216224;1274;140053;-68
2022/07/29 06:30:47;;;;;;;3.60;1.50;;;;;;;36.16;30.99;100262.13;215554;1274;139744;-65
2022/07/29 06:35:52;;;;;;;2.20;1.90;;;;;;;35.80;30.92;100264.27;215712;1275;140753;-66
2022/07/29 06:41:01;;;;;;;3.10;2.10;;;;;;;34.45;31.40;100268.67;214644;1274;139384;-65
2022/07/29 06:46:10;;;;;;;4.20;2.20;;;;;;;33.38;31.75;100271.30;213823;1274;140362;-65
2022/07/29 06:51:16;;;;;;;4.10;2.70;;;;;;;32.46;32.08;100271.08;213772;1274;139306;-64
2022/07/29 06:56:27;;;;;;;8.40;2.40;;;;;;;31.38;32.66;100268.78;214711;1274;140409;-65
2022/07/29 07:01:32;;;;;;;2.70;1.50;;;;;;;30.70;32.90;100269.23;214767;1274;141554;-65
2022/07/29 07:06:37;;;;;;;3.80;1.80;;;;;;;30.05;33.33;100267.76;213856;1274;141259;-65
2022/07/29 07:11:42;;;;;;;5.70;2.00;;;;;;;30.89;33.50;100257.80;214549;1274;141058;-64
2022/07/29 07:16:49;;;;;;;5.90;2.30;;;;;;;32.41;32.51;100252.08;213370;1274;140285;-64
2022/07/29 07:21:58;;;;;;;2.80;1.30;;;;;;;33.34;31.48;100264.55;213324;1274;139559;-65
2022/07/29 07:27:05;;;;;;;3.40;1.20;;;;;;;33.50;30.57;100264.84;214509;1274;139559;-64
2022/07/29 07:32:09;;;;;;;2.50;1.70;;;;;;;33.66;30.44;100267.23;213581;1274;140018;-64
2022/07/29 07:37:14;;;;;;;;;;;;;;;33.08;30.08;100264.10;213927;1273;139899;-64
2022/07/29 07:42:20;;;;;;;4.80;1.90;;;;;;;32.04;30.49;100253.16;214671;1273;125681;-65
2022/07/29 07:47:25;;;;;;;6.00;1.40;;;;;;;32.01;31.20;100245.88;214845;1274;139284;-65
2022/07/29 07:52:30;;;;;;;1.50;1.20;;;;;;;31.82;30.93;100247.33;214222;1274;140316;-65
2022/07/29 07:57:35;;;;;;;3.60;1.30;;;;;;;31.77;31.17;100255.88;215453;1274;139271;-65
2022/07/29 08:02:40;;;;;;;3.30;1.60;;;;;;;30.90;30.96;100261.23;215700;1273;140057;-65
2022/07/29 08:07:47;;;;;;;1.20;1.10;;;;;;;30.07;31.22;100247.46;215846;1274;139517;-65
2022/07/29 08:12:51;;;;;;;1.50;1.40;;;;;;;29.60;32.58;100247.99;215865;1274;140072;-65
2022/07/29 08:17:55;;;;;;;7.20;2.10;;;;;;;29.53;32.65;100247.73;216257;1274;140026;-66
2022/07/29 08:22:59;;;;;;;2.70;1.80;;;;;;;29.42;32.41;100250.99;216247;1274;139586;-67
2022/07/29 08:28:02;;;;;;;5.50;2.10;;;;;;;29.11;32.28;100246.66;215909;1273;140193;-67
2022/07/29 08:33:07;;;;;;;7.40;2.30;;;;;;;28.66;32.83;100251.22;215500;1274;139650;-67
2022/07/29 08:38:11;;;;;;;5.30;2.10;;;;;;;28.51;33.12;100251.19;214532;1274;140795;-65
2022/07/29 08:43:15;;;;;;;4.50;1.50;;;;;;;28.71;33.66;100252.39;214831;1275;139071;-64
2022/07/29 08:48:22;;;;;;;1.70;1.20;;;;;;;29.07;33.29;100254.89;214317;1274;141463;-64
2022/07/29 08:53:28;;;;;;;2.30;1.90;;;;;;;29.24;32.65;100255.61;215062;1274;139888;-66
2022/07/29 08:58:33;;;;;;;5.50;1.40;;;;;;;29.13;32.60;100251.69;213772;1274;140416;-63
2022/07/29 09:03:43;;;;;;;2.70;1.80;;;;;;;29.02;32.67;100250.81;213086;1274;142550;-64
2022/07/29 09:08:49;;;;;;;5.40;1.80;;;;;;;28.98;32.97;100254.07;213660;1274;141852;-64
2022/07/29 09:13:53;;;;;;;2.70;1.30;;;;;;;28.85;32.82;100253.48;213498;1274;151816;-65
2022/07/29 09:18:58;;;;;;;3.10;1.70;;;;;;;28.75;33.44;100256.69;214156;1274;140856;-64
2022/07/29 09:24:13;;;;;;;1.50;1.40;;;;;;;28.96;33.17;100251.88;213760;1274;142769;-64
2022/07/29 09:29:19;;;;;;;5.30;1.60;;;;;;;28.63;32.99;100249.71;213468;1274;140573;-64
2022/07/29 09:34:28;;;;;;;2.80;1.00;;;;;;;28.46;33.54;100244.21;214161;1274;140066;-65
2022/07/29 09:39:34;;;;;;;1.20;0.80;;;;;;;28.53;33.47;100238.39;214067;1274;139747;-65
2022/07/29 09:44:48;;;;;;;3.60;1.80;;;;;;;28.47;33.41;100229.83;215209;1274;140070;-66
2022/07/29 09:49:53;;;;;;;3.10;1.40;;;;;;;28.33;34.21;100224.29;213417;1274;139989;-64
2022/07/29 09:55:08;;;;;;;2.40;1.70;;;;;;;28.74;33.83;100220.45;213872;1274;140361;-65
2022/07/29 10:00:17;;;;;;;1.30;0.90;;;;;;;28.77;32.98;100218.66;213435;1274;141612;-64
2022/07/29 10:05:28;;;;;;;4.20;1.10;;;;;;;28.70;32.99;100205.18;213158;1277;141629;-65
2022/07/29 10:10:41;;;;;;;1.40;1.00;;;;;;;28.77;32.76;100211.34;215211;1276;140206;-65
2022/07/29 10:15:45;;;;;;;28.90;2.30;;;;;;;28.96;32.48;100213.45;215014;1275;141365;-66
2022/07/29 10:20:50;;;;;;;1.20;1.10;;;;;;;28.88;32.81;100212.17;216340;1275;140388;-67
2022/07/29 10:25:55;;;;;;;1.20;1.00;;;;;;;28.70;32.13;100213.64;213755;1274;140595;-65
2022/07/29 10:31:22;;;;;;;2.80;1.10;;;;;;;28.56;31.88;100212.17;215091;1276;144324;-66
2022/07/29 10:36:56;;;;;;;3.10;0.80;;;;;;;28.57;32.05;100205.55;215186;1275;140640;-65
2022/07/29 10:42:24;;;;;;;1.80;1.20;;;;;;;28.58;32.13;100198.52;214061;1276;141291;-64
2022/07/29 10:47:36;;;;;;;2.60;1.40;;;;;;;28.72;32.26;100193.65;214161;1276;141477;-64
2022/07/29 10:52:56;;;;;;;1.50;1.20;;;;;;;28.86;32.20;100198.31;214525;1274;140745;-63
2022/07/29 10:58:17;;;;;;;3.60;1.10;;;;;;;28.93;31.66;100187.42;213333;1274;142602;-64
2022/07/29 11:03:42;;;;;;;0.90;0.90;;;;;;;28.77;31.88;100182.11;214923;1274;140527;-66
2022/07/29 11:09:18;;;;;;;3.60;1.40;;;;;;;28.42;31.70;100170.53;213720;1274;140494;-65
2022/07/29 11:14:58;;;;;;;5.40;2.70;;;;;;;28.06;32.19;100172.61;213624;1274;230212;-63
2022/07/29 11:20:44;;;;;;;10.40;8.10;;;;;;;28.17;32.34;100170.63;214156;1274;140650;-63
2022/07/29 11:26:17;;;;;;;32.20;18.70;;;;;;;28.52;32.58;100169.67;214233;1274;140300;-66
2022/07/29 11:31:42;;;;;;;3.10;1.60;;;;;;;28.88;33.02;100166.63;213389;1274;139836;-64
2022/07/29 11:37:12;;;;;;;4.50;1.40;;;;;;;29.31;32.58;100168.91;213642;1273;140315;-63
2022/07/29 11:42:19;;;;;;;25.00;18.00;;;;;;;29.80;32.09;100173.15;214411;1274;140531;-64
2022/07/29 11:47:40;;;;;;;22.00;13.60;;;;;;;29.70;30.92;100169.68;214416;1274;140886;-64
2022/07/29 11:52:47;;;;;;;28.70;15.30;;;;;;;29.50;30.65;100172.05;215504;1273;141249;-64
2022/07/29 11:57:53;;;;;;;22.70;5.30;;;;;;;29.56;30.36;100179.13;213633;1274;140651;-64
2022/07/29 12:03:09;;;;;;;3.30;1.40;;;;;;;29.54;30.23;100166.80;214682;1275;139282;-65
2022/07/29 12:08:21;;;;;;;1.00;0.80;;;;;;;29.44;30.91;100162.44;214140;1274;141259;-65
2022/07/29 12:13:39;;;;;;;21.70;11.40;;;;;;;28.87;30.60;100163.52;214492;1274;139957;-65
2022/07/29 12:18:58;;;;;;;3.90;0.90;;;;;;;28.68;31.11;100158.10;216067;1274;140599;-65
2022/07/29 12:24:07;;;;;;;2.60;1.30;;;;;;;28.74;31.24;100147.55;214922;1273;140406;-66
2022/07/29 12:29:17;;;;;;;4.30;1.40;;;;;;;29.11;31.35;100139.92;216038;1274;139872;-67
2022/07/29 12:34:40;;;;;;;9.60;5.80;;;;;;;29.39;31.46;100130.52;216036;1274;139819;-66
2022/07/29 12:39:46;;;;;;;1.90;1.60;;;;;;;29.78;30.98;100128.58;215765;1274;140009;-65
2022/07/29 12:44:51;;;;;;;13.10;5.60;;;;;;;29.72;30.69;100128.73;215148;1274;139158;-66
2022/07/29 12:50:17;;;;;;;3.00;1.70;;;;;;;29.27;30.70;100129.19;213228;1275;140454;-64
2022/07/29 12:55:39;;;;;;;2.60;1.10;;;;;;;29.02;31.28;100125.88;213622;1275;139478;-66
2022/07/29 13:00:44;;;;;;;2.60;1.60;;;;;;;28.72;31.76;100118.23;213366;1274;139470;-64
2022/07/29 13:05:50;;;;;;;14.40;2.00;;;;;;;28.55;32.02;100120.55;214062;1276;139874;-64
2022/07/29 13:10:54;;;;;;;6.30;1.80;;;;;;;28.52;32.24;100114.34;213771;1274;141958;-64
2022/07/29 13:16:08;;;;;;;10.10;3.30;;;;;;;28.50;32.55;100107.37;214534;1276;140655;-64
2022/07/29 13:21:15;;;;;;;10.20;6.70;;;;;;;28.42;32.99;100105.80;213281;1276;140283;-63
2022/07/29 13:26:21;;;;;;;17.00;8.60;;;;;;;28.31;33.22;100103.50;214479;1274;140284;-64
2022/07/29 13:31:27;;;;;;;2.90;2.10;;;;;;;28.27;32.91;100107.00;213519;1274;141080;-65
2022/07/29 13:36:31;;;;;;;1.60;1.50;;;;;;;28.28;33.33;100093.08;214128;1274;159228;-65
2022/07/29 13:41:37;;;;;;;2.90;2.00;;;;;;;28.21;33.18;100093.55;214685;1274;140103;-65
2022/07/29 13:46:44;;;;;;;12.20;4.70;;;;;;;28.15;32.97;100092.80;213605;1274;139616;-64
2022/07/29 13:51:49;;;;;;;2.70;1.20;;;;;;;28.05;33.62;100087.77;214194;1274;141528;-65
2022/07/29 13:56:56;;;;;;;3.30;1.10;;;;;;;27.98;33.89;100091.17;214973;1274;139556;-65
2022/07/29 14:01:59;;;;;;;7.10;1.60;;;;;;;27.84;33.76;100084.45;215352;1276;139850;-64
2022/07/29 14:07:04;;;;;;;7.30;1.70;;;;;;;27.68;33.68;100083.27;214850;1276;139839;-64
2022/07/29 14:12:08;;;;;;;5.40;1.80;;;;;;;27.51;33.76;100081.05;215842;1276;140531;-64
2022/07/29 14:17:11;;;;;;;3.70;1.10;;;;;;;27.40;34.20;100074.64;214952;1276;139383;-64
2022/07/29 14:22:15;;;;;;;2.00;1.50;;;;;;;27.35;34.04;100071.79;215551;1276;140634;-65
2022/07/29 14:27:19;;;;;;;3.80;2.00;;;;;;;27.31;33.99;100069.38;216152;1276;140034;-66
2022/07/29 14:32:40;;;;;;;2.10;1.30;;;;;;;27.27;34.18;100061.51;215922;1275;140948;-65
2022/07/29 14:37:44;;;;;;;3.30;1.50;;;;;;;27.23;34.28;100060.67;214547;1276;139595;-66
2022/07/29 14:42:48;;;;;;;10.60;3.00;;;;;;;27.09;34.32;100054.25;214723;1277;140461;-62
2022/07/29 14:47:52;;;;;;;4.50;2.00;;;;;;;26.94;34.34;100050.55;215151;1276;140358;-65
2022/07/29 14:53:00;;;;;;;1.70;1.60;;;;;;;26.82;34.56;100047.21;214555;1276;140242;-65
2022/07/29 14:58:04;;;;;;;3.30;1.90;;;;;;;26.74;34.64;100043.64;214224;1274;140714;-66
2022/07/29 15:03:16;;;;;;;3.40;1.70;;;;;;;26.66;35.02;100042.64;215041;1274;140491;-66
2022/07/29 15:08:28;;;;;;;5.20;2.30;;;;;;;26.58;35.05;100031.73;214590;1274;141286;-66
2022/07/29 15:13:31;;;;;;;1.80;1.70;;;;;;;26.50;35.30;100025.44;213885;1274;222758;-67
2022/07/29 15:18:37;;;;;;;2.70;1.70;;;;;;;26.46;35.61;100018.59;213970;1274;140950;-66
2022/07/29 15:23:40;;;;;;;3.50;1.40;;;;;;;26.41;35.71;100019.13;214714;1274;140159;-66
2022/07/29 15:28:44;;;;;;;3.70;2.10;;;;;;;26.35;35.92;100019.63;214349;1274;140335;-66
2022/07/29 15:33:48;;;;;;;5.70;2.40;;;;;;;26.33;36.15;100021.12;213581;1274;140322;-64
2022/07/29 15:38:59;;;;;;;1.90;1.50;;;;;;;26.34;36.42;100016.83;214100;1274;140790;-64
2022/07/29 15:44:03;;;;;;;1.60;1.50;;;;;;;26.37;36.24;100012.21;214562;1274;139918;-65
2022/07/29 15:49:08;;;;;;;5.90;3.40;;;;;;;26.36;36.36;100005.21;214078;1274;140095;-64
2022/07/29 15:54:12;;;;;;;1.40;1.30;;;;;;;26.28;36.66;100006.23;214355;1274;141743;-65
2022/07/29 15:59:16;;;;;;;3.30;2.40;;;;;;;26.14;36.96;100007.95;214785;1272;139214;-65
2022/07/29 16:04:25;;;;;;;8.30;1.60;;;;;;;26.01;36.98;100004.93;215180;1273;139665;-65
2022/07/29 16:09:29;;;;;;;4.00;1.80;;;;;;;25.91;37.66;100004.77;215285;1274;139535;-64
2022/07/29 16:14:33;;;;;;;3.60;1.40;;;;;;;25.78;37.65;100000.20;214426;1274;490316;-65
2022/07/29 16:19:39;;;;;;;4.60;1.40;;;;;;;25.66;37.59;99999.20;216059;1274;139833;-64
2022/07/29 16:24:43;;;;;;;1.70;1.30;;;;;;;25.58;38.10;100001.34;216207;1274;140904;-65
2022/07/29 16:29:50;;;;;;;6.70;1.70;;;;;;;25.55;37.74;99993.36;216104;1274;139771;-65
2022/07/29 16:35:04;;;;;;;1.40;1.30;;;;;;;25.52;38.02;99993.11;214736;1274;140443;-65
2022/07/29 16:40:08;;;;;;;3.90;1.30;;;;;;;25.44;38.22;99994.10;215280;1274;139088;-65
2022/07/29 16:45:15;;;;;;;5.90;1.50;;;;;;;25.35;38.56;99996.38;213686;1274;139144;-64
2022/07/29 16:50:22;;;;;;;5.40;1.80;;;;;;;25.21;38.95;100000.64;213932;1274;139357;-64
2022/07/29 16:55:27;;;;;;;4.40;1.40;;;;;;;25.07;38.98;99999.91;214971;1274;140772;-65
2022/07/29 17:00:31;;;;;;;5.70;1.80;;;;;;;24.98;39.10;100000.83;214103;1274;143303;-63
2022/07/29 17:05:38;;;;;;;7.80;1.90;;;;;;;24.86;39.72;100005.36;213117;1274;140112;-64
2022/07/29 17:10:56;;;;;;;2.90;1.20;;;;;;;24.73;39.60;100011.03;213648;1274;140295;-65
2022/07/29 17:16:00;;;;;;;6.50;2.00;;;;;;;24.56;40.01;100005.58;213884;1274;139205;-66
2022/07/29 17:21:05;;;;;;;6.40;2.00;;;;;;;24.42;40.33;100005.36;213587;1274;139185;-65
2022/07/29 17:26:09;;;;;;;1.70;1.60;;;;;;;24.28;40.64;100005.53;213165;1274;139573;-65
2022/07/29 17:31:14;;;;;;;2.60;1.30;;;;;;;24.13;40.83;100006.40;213922;1274;139984;-63
2022/07/29 17:36:22;;;;;;;5.10;1.20;;;;;;;24.02;41.06;100005.55;214719;1274;139835;-65
2022/07/29 17:41:27;;;;;;;1.80;1.30;;;;;;;23.95;41.50;100007.95;214380;1274;139144;-64
2022/07/29 17:46:31;;;;;;;8.90;1.70;;;;;;;23.87;41.84;100009.98;214126;1274;139918;-64
2022/07/29 17:51:38;;;;;;;3.20;1.60;;;;;;;23.77;42.17;100004.88;215035;1274;139543;-65
2022/07/29 17:56:44;;;;;;;3.70;1.90;;;;;;;23.62;42.40;100004.59;214159;1274;139922;-65
2022/07/29 18:01:48;;;;;;;1.60;1.50;;;;;;;23.45;42.40;100002.27;215928;1274;139563;-65
2022/07/29 18:06:52;;;;;;;1.50;1.40;;;;;;;23.26;42.89;99998.27;215788;1274;140932;-65
2022/07/29 18:11:57;;;;;;;2.40;2.20;;;;;;;23.08;43.69;100004.83;216124;1274;139033;-66
2022/07/29 18:17:00;;;;;;;5.80;1.70;;;;;;;22.93;44.06;100010.55;215739;1274;139931;-65
2022/07/29 18:22:06;;;;;;;7.00;1.90;;;;;;;22.78;44.62;100015.36;216093;1272;140599;-66
2022/07/29 18:27:10;;;;;;;2.20;1.90;;;;;;;22.67;44.69;100010.64;215068;1273;139352;-65
2022/07/29 18:32:14;;;;;;;3.60;1.80;;;;;;;22.58;44.84;100012.67;215293;1274;139431;-65
2022/07/29 18:37:18;;;;;;;4.20;1.90;;;;;;;22.48;45.07;100009.58;213943;1274;140008;-65
2022/07/29 18:42:42;;;;;;;11.10;2.20;;;;;;;22.39;45.21;100011.46;215777;1274;139393;-66
2022/07/29 18:47:47;;;;;;;3.30;2.40;;;;;;;22.29;45.40;100011.90;213389;1274;140057;-65
2022/07/29 18:52:51;;;;;;;2.60;1.90;;;;;;;22.20;45.32;100014.54;215353;1274;141349;-65
2022/07/29 18:57:56;;;;;;;2.30;1.40;;;;;;;22.11;45.44;100018.27;214316;1274;140106;-65
2022/07/29 19:03:01;;;;;;;2.20;1.30;;;;;;;22.02;45.62;100018.06;214089;1273;140088;-65
2022/07/29 19:08:11;;;;;;;5.40;1.80;;;;;;;21.95;45.65;100016.90;214374;1274;139081;-65
2022/07/29 19:13:15;;;;;;;1.50;1.40;;;;;;;21.87;45.90;100022.88;214050;1274;233556;-65
2022/07/29 19:18:20;;;;;;;2.10;1.70;;;;;;;21.80;45.89;100029.11;214231;1276;140223;-65
2022/07/29 19:23:24;;;;;;;1.10;1.10;;;;;;;21.74;46.07;100024.58;213467;1275;141340;-65
2022/07/29 19:28:38;;;;;;;3.70;1.70;;;;;;;21.67;46.01;100024.36;214243;1274;140238;-65
2022/07/29 19:33:57;;;;;;;2.10;1.50;;;;;;;21.60;46.13;100024.86;213990;1274;140293;-65
2022/07/29 19:39:01;;;;;;;4.80;1.80;;;;;;;21.54;46.16;100024.66;214947;1274;140901;-66
2022/07/29 19:44:04;;;;;;;3.80;1.10;;;;;;;21.48;46.33;100017.96;214716;1274;142226;-65
2022/07/29 19:49:08;;;;;;;4.80;1.80;;;;;;;21.40;46.47;100024.80;214758;1274;141119;-65
2022/07/29 19:54:14;;;;;;;1.30;1.20;;;;;;;21.36;46.37;100019.36;215994;1274;141495;-65
2022/07/29 19:59:18;;;;;;;2.40;1.40;;;;;;;21.33;46.53;100019.14;216003;1274;139931;-65
2022/07/29 20:04:26;;;;;;;4.20;2.10;;;;;;;21.30;46.62;100015.77;216271;1274;140699;-65
2022/07/29 20:09:30;;;;;;;6.20;1.70;;;;;;;21.26;46.50;100011.02;216216;1274;140837;-66
2022/07/29 20:14:33;;;;;;;7.20;2.00;;;;;;;21.22;46.65;100010.80;215705;1273;139764;-66
2022/07/29 20:19:37;;;;;;;1.60;1.50;;;;;;;21.18;46.85;100005.48;215251;1273;140026;-65
2022/07/29 20:24:41;;;;;;;1.90;1.70;;;;;;;21.15;46.98;100009.33;214810;1274;141041;-65
2022/07/29 20:29:47;;;;;;;2.50;2.00;;;;;;;21.12;47.13;100005.98;214385;1274;140104;-65
2022/07/29 20:34:50;;;;;;;1.30;1.20;;;;;;;21.06;47.22;100011.56;215594;1274;140041;-65
2022/07/29 20:39:55;;;;;;;4.70;1.70;;;;;;;21.04;47.20;100007.37;214905;1274;141637;-64
2022/07/29 20:44:58;;;;;;;2.40;2.00;;;;;;;21.00;47.24;100008.63;213912;1276;140428;-66
2022/07/29 20:50:02;;;;;;;3.70;1.80;;;;;;;20.96;47.59;100004.04;213677;1276;140105;-65
2022/07/29 20:55:08;;;;;;;2.40;1.60;;;;;;;20.90;47.57;100003.80;214242;1274;140785;-65
2022/07/29 21:00:13;;;;;;;2.00;1.50;;;;;;;20.83;47.48;100004.76;213849;1274;143005;-66
2022/07/29 21:05:22;;;;;;;3.50;1.40;;;;;;;20.79;47.59;100001.05;213599;1274;141463;-65
2022/07/29 21:10:28;;;;;;;4.40;1.90;;;;;;;20.73;47.52;100000.98;213444;1274;142297;-66
2022/07/29 21:15:33;;;;;;;1.60;1.50;;;;;;;20.68;47.54;100000.86;214230;1274;140443;-66
2022/07/29 21:20:40;;;;;;;2.90;1.80;;;;;;;20.59;47.57;99992.32;213592;1274;139502;-66
2022/07/29 21:25:44;;;;;;;3.60;1.70;;;;;;;20.56;47.65;99989.13;213899;1275;140855;-66
2022/07/29 21:30:51;;;;;;;1.80;1.50;;;;;;;20.48;47.77;99992.98;214651;1276;139897;-66
2022/07/29 21:36:03;;;;;;;1.30;1.30;;;;;;;20.41;47.86;99990.70;214343;1274;141404;-65
2022/07/29 21:41:28;;;;;;;6.60;2.10;;;;;;;20.38;47.83;99993.02;214427;1274;139979;-64
2022/07/29 21:46:35;;;;;;;2.80;1.60;;;;;;;20.35;47.96;99985.68;214926;1274;141209;-66
2022/07/29 21:51:39;;;;;;;4.90;2.00;;;;;;;20.28;48.10;99979.05;215053;1274;139524;-65
2022/07/29 21:56:44;;;;;;;6.40;1.90;;;;;;;20.23;48.23;99982.37;216335;1274;139265;-65
2022/07/29 22:01:59;;;;;;;1.70;1.40;;;;;;;20.20;48.34;99979.88;216072;1274;139857;-65
2022/07/29 22:07:04;;;;;;;2.70;1.90;;;;;;;20.17;48.43;99986.84;216202;1275;139783;-65
2022/07/29 22:12:09;;;;;;;3.10;2.40;;;;;;;20.14;48.87;99989.01;215452;1276;140931;-65
2022/07/29 22:17:15;;;;;;;7.70;2.60;;;;;;;20.12;48.95;99990.81;215679;1276;140096;-65
2022/07/29 22:22:19;;;;;;;2.30;2.00;;;;;;;20.11;49.23;99992.25;215548;1275;139835;-65
2022/07/29 22:27:22;;;;;;;1.80;1.60;;;;;;;20.04;49.13;99990.43;215366;1275;138990;-65
2022/07/29 22:32:26;;;;;;;4.10;2.20;;;;;;;20.00;49.92;99993.02;213790;1275;140835;-65
2022/07/29 22:37:30;;;;;;;3.90;1.90;;;;;;;19.95;50.40;99990.92;214869;1276;141492;-65
2022/07/29 22:42:35;;;;;;;2.00;1.80;;;;;;;19.90;50.76;99993.91;214497;1277;142774;-66
2022/07/29 22:47:43;;;;;;;2.80;2.10;;;;;;;19.80;51.06;99976.78;213970;1275;153954;-65
2022/07/29 22:52:51;;;;;;;8.50;1.80;;;;;;;19.71;51.16;99975.42;213964;1276;140824;-65
2022/07/29 22:57:55;;;;;;;7.10;2.10;;;;;;;19.62;52.51;99982.84;213759;1274;140038;-67
2022/07/29 23:03:00;;;;;;;1.70;1.60;;;;;;;19.47;53.50;99992.52;214248;1274;140084;-65
2022/07/29 23:08:03;;;;;;;1.70;1.60;;;;;;;19.22;54.55;99991.80;213865;1274;139597;-66
2022/07/29 23:13:10;;;;;;;5.00;1.80;;;;;;;19.01;55.37;99984.31;215070;1274;140266;-66
2022/07/29 23:18:13;;;;;;;6.30;2.20;;;;;;;18.87;56.50;99981.91;214152;1274;140271;-65
2022/07/29 23:23:18;;;;;;;5.40;2.30;;;;;;;18.64;57.46;99972.89;215180;1274;139045;-65